createdAt,value
2023-02-19T00:01:56.639Z,7.08
2023-02-19T00:04:23.803Z,7.01
2023-02-19T00:06:56.060Z,6.85
2023-02-19T00:09:22.922Z,6.82
2023-02-19T00:11:50.041Z,6.80
2023-02-19T00:14:20.096Z,6.83
2023-02-19T00:16:47.525Z,6.81
2023-02-19T00:19:16.712Z,6.80
2023-02-19T00:21:43.798Z,6.86
2023-02-19T00:24:11.962Z,6.97
2023-02-19T00:26:40.961Z,6.93
2023-02-19T00:29:07.664Z,6.89
2023-02-19T00:31:36.054Z,6.80
2023-02-19T00:34:05.288Z,6.84
2023-02-19T00:36:36.093Z,6.86
2023-02-19T00:39:03.884Z,6.87
2023-02-19T00:41:30.669Z,6.91
2023-02-19T00:44:09.609Z,6.94
2023-02-19T00:46:42.231Z,7.02
2023-02-19T00:49:16.483Z,6.89
2023-02-19T00:51:46.152Z,6.80
2023-02-19T00:54:16.250Z,6.70
2023-02-19T00:56:46.322Z,6.65
2023-02-19T00:59:13.079Z,6.60
2023-02-19T01:01:44.575Z,6.54
2023-02-19T01:04:12.219Z,6.41
2023-02-19T01:06:43.529Z,6.29
2023-02-19T01:09:10.280Z,6.21
2023-02-19T01:11:38.511Z,6.10
2023-02-19T01:14:05.280Z,5.96
2023-02-19T01:16:34.722Z,5.85
2023-02-19T01:19:01.570Z,5.83
2023-02-19T01:21:29.700Z,5.77
2023-02-19T01:23:57.562Z,5.73
2023-02-19T01:26:27.583Z,5.75
2023-02-19T01:28:54.223Z,5.63
2023-02-19T01:31:29.051Z,5.57
2023-02-19T01:34:01.225Z,5.51
2023-02-19T01:36:31.633Z,5.50
2023-02-19T01:39:06.613Z,5.52
2023-02-19T01:41:36.715Z,5.60
2023-02-19T01:44:08.898Z,5.49
2023-02-19T01:46:39.645Z,5.49
2023-02-19T01:49:23.015Z,5.53
2023-02-19T01:51:57.589Z,5.55
2023-02-19T01:54:29.122Z,5.65
2023-02-19T01:56:56.956Z,5.77
2023-02-19T01:59:23.731Z,5.88
2023-02-19T02:01:50.553Z,5.89
2023-02-19T02:04:19.852Z,5.91
2023-02-19T02:06:52.936Z,6.00
2023-02-19T02:09:39.856Z,5.93
2023-02-19T02:12:06.685Z,5.98
2023-02-19T02:14:39.199Z,5.93
2023-02-19T02:17:26.269Z,5.99
2023-02-19T02:20:15.431Z,5.93
2023-02-19T02:22:52.263Z,5.90
2023-02-19T02:25:33.388Z,5.84
2023-02-19T02:28:31.712Z,5.94
2023-02-19T02:31:04.002Z,6.05
2023-02-19T02:33:44.052Z,5.97
2023-02-19T02:36:27.232Z,6.21
2023-02-19T02:38:55.477Z,6.44
2023-02-19T02:41:22.630Z,6.45
2023-02-19T02:43:51.691Z,6.45
2023-02-19T02:46:24.985Z,6.61
2023-02-19T02:48:57.042Z,6.71
2023-02-19T02:51:41.513Z,6.74
2023-02-19T02:54:42.702Z,6.83
2023-02-19T02:57:14.911Z,6.95
2023-02-19T02:59:45.977Z,6.99
2023-02-19T03:02:22.965Z,7.03
2023-02-19T03:05:39.582Z,7.04
2023-02-19T03:08:50.250Z,7.07
2023-02-19T03:11:35.658Z,7.01
2023-02-19T03:14:34.747Z,7.05
2023-02-19T03:17:32.214Z,6.97
2023-02-19T03:20:01.178Z,6.96
2023-02-19T03:22:37.932Z,7.01
2023-02-19T03:25:28.552Z,7.02
2023-02-19T03:27:58.672Z,7.05
2023-02-19T03:30:30.729Z,6.99
2023-02-19T03:33:15.661Z,6.94
2023-02-19T03:35:52.680Z,6.94
2023-02-19T03:38:48.239Z,7.06
2023-02-19T03:41:26.897Z,7.16
2023-02-19T03:43:59.559Z,7.22
2023-02-19T03:46:41.508Z,7.10
2023-02-19T03:49:23.777Z,7.00
2023-02-19T03:52:11.843Z,7.06
2023-02-19T03:54:45.359Z,6.93
2023-02-19T03:57:18.931Z,6.85
2023-02-19T04:00:05.814Z,6.80
2023-02-19T04:02:47.974Z,6.99
2023-02-19T04:05:18.931Z,6.85
2023-02-19T04:07:51.889Z,6.87
2023-02-19T04:10:19.890Z,6.87
2023-02-19T04:12:58.138Z,6.97
2023-02-19T04:15:32.184Z,6.88
2023-02-19T04:18:09.358Z,6.64
2023-02-19T04:20:41.153Z,6.68
2023-02-19T04:23:08.261Z,6.61
2023-02-19T04:25:47.221Z,6.65
2023-02-19T04:28:16.609Z,6.63
2023-02-19T04:30:46.841Z,6.58
2023-02-19T04:33:17.937Z,6.73
2023-02-19T04:35:46.759Z,6.81
2023-02-19T04:38:14.498Z,6.72
2023-02-19T04:40:41.201Z,6.67
2023-02-19T04:43:10.482Z,6.61
2023-02-19T04:45:41.214Z,6.55
2023-02-19T04:48:07.918Z,6.56
2023-02-19T04:50:34.652Z,6.63
2023-02-19T04:53:01.325Z,6.72
2023-02-19T04:55:28.024Z,6.78
2023-02-19T04:57:54.640Z,6.67
2023-02-19T05:00:21.310Z,6.68
2023-02-19T05:02:50.438Z,6.61
2023-02-19T05:05:17.115Z,6.57
2023-02-19T05:07:43.767Z,6.59
2023-02-19T05:10:16.126Z,6.63
2023-02-19T05:12:45.134Z,6.68
2023-02-19T05:15:11.797Z,6.76
2023-02-19T05:17:38.431Z,6.74
2023-02-19T05:20:08.399Z,6.73
2023-02-19T05:22:37.116Z,6.63
2023-02-19T05:25:04.972Z,6.57
2023-02-19T05:27:36.169Z,6.49
2023-02-19T05:30:05.207Z,6.41
2023-02-19T05:32:31.873Z,6.38
2023-02-19T05:34:58.524Z,6.43
2023-02-19T05:37:25.133Z,6.36
2023-02-19T05:39:51.772Z,6.29
2023-02-19T05:42:18.410Z,6.27
2023-02-19T05:44:46.336Z,6.24
2023-02-19T05:47:18.270Z,6.26
2023-02-19T05:49:52.055Z,6.20
2023-02-19T05:52:21.189Z,6.17
2023-02-19T05:54:50.686Z,6.22
2023-02-19T05:57:19.081Z,6.18
2023-02-19T05:59:45.737Z,6.14
2023-02-19T06:02:14.838Z,6.14
2023-02-19T06:04:41.429Z,6.12
2023-02-19T06:07:08.019Z,6.03
2023-02-19T06:09:34.675Z,6.03
2023-02-19T06:12:01.262Z,6.03
2023-02-19T06:14:31.781Z,6.05
2023-02-19T06:16:58.366Z,6.05
2023-02-19T06:19:27.803Z,6.08
2023-02-19T06:21:55.812Z,6.10
2023-02-19T06:24:22.449Z,6.09
2023-02-19T06:29:32.815Z,6.03
2023-02-19T06:32:04.506Z,6.08
2023-02-19T06:34:31.555Z,6.16
2023-02-19T06:36:58.751Z,6.38
2023-02-19T06:39:25.907Z,6.34
2023-02-19T06:41:56.526Z,6.33
2023-02-19T06:44:25.870Z,6.32
2023-02-19T06:46:55.626Z,6.28
2023-02-19T06:49:22.942Z,6.30
2023-02-19T06:51:49.607Z,6.37
2023-02-19T06:54:16.203Z,6.40
2023-02-19T06:56:44.842Z,6.50
2023-02-19T06:59:18.701Z,6.59
2023-02-19T07:01:47.843Z,6.69
2023-02-19T07:04:14.684Z,6.81
2023-02-19T07:06:43.681Z,6.95
2023-02-19T07:09:11.735Z,7.02
2023-02-19T07:11:40.802Z,7.14
2023-02-19T07:14:15.391Z,7.28
2023-02-19T07:16:47.375Z,7.34
2023-02-19T07:19:16.084Z,7.44
2023-02-19T07:21:42.816Z,7.50
2023-02-19T07:24:11.364Z,7.57
2023-02-19T07:26:38.058Z,7.68
2023-02-19T07:29:05.155Z,7.77
2023-02-19T07:31:31.939Z,7.85
2023-02-19T07:34:03.620Z,7.89
2023-02-19T07:36:33.125Z,7.94
2023-02-19T07:39:00.529Z,8.08
2023-02-19T07:41:27.940Z,8.21
2023-02-19T07:44:02.539Z,8.25
2023-02-19T07:49:14.683Z,8.36
2023-02-19T07:51:44.649Z,8.49
2023-02-19T07:54:15.826Z,8.61
2023-02-19T07:56:48.349Z,8.73
2023-02-19T07:59:15.978Z,8.79
2023-02-19T08:02:04.095Z,8.92
2023-02-19T08:04:35.048Z,9.10
2023-02-19T08:07:08.344Z,9.19
2023-02-19T08:09:41.563Z,9.28
2023-02-19T08:12:28.002Z,9.41
2023-02-19T08:14:54.703Z,9.56
2023-02-19T08:17:21.712Z,9.61
2023-02-19T08:19:49.565Z,9.44
2023-02-19T08:22:28.447Z,9.43
2023-02-19T08:24:56.293Z,9.31
2023-02-19T08:27:27.751Z,9.23
2023-02-19T08:29:57.013Z,9.14
2023-02-19T08:32:23.504Z,9.09
2023-02-19T08:34:49.964Z,9.08
2023-02-19T08:37:18.724Z,9.15
2023-02-19T08:39:45.208Z,9.23
2023-02-19T08:42:11.721Z,9.34
2023-02-19T08:44:38.232Z,9.46
2023-02-19T08:47:05.832Z,9.59
2023-02-19T08:49:32.486Z,9.82
2023-02-19T08:51:59.131Z,9.92
2023-02-19T08:54:25.788Z,10.00
2023-02-19T08:56:54.852Z,9.99
2023-02-19T08:59:21.937Z,9.96
2023-02-19T09:01:48.598Z,9.87
2023-02-19T09:04:15.323Z,9.91
2023-02-19T09:06:42.070Z,10.10
2023-02-19T09:09:08.808Z,10.21
2023-02-19T09:11:35.267Z,10.30
2023-02-19T09:14:09.181Z,10.37
2023-02-19T09:16:36.016Z,10.40
2023-02-19T09:19:03.257Z,10.39
2023-02-19T09:21:32.838Z,10.36
2023-02-19T09:23:59.424Z,10.35
2023-02-19T09:26:26.080Z,10.43
2023-02-19T09:28:52.791Z,10.59
2023-02-19T09:31:19.697Z,10.56
2023-02-19T09:33:46.869Z,10.57
2023-02-19T09:36:14.077Z,10.56
2023-02-19T09:38:40.697Z,10.55
2023-02-19T09:41:09.598Z,10.56
2023-02-19T09:43:37.638Z,10.52
2023-02-19T09:46:18.508Z,10.46
2023-02-19T09:48:47.344Z,10.41
2023-02-19T09:51:23.889Z,10.40
2023-02-19T09:53:50.927Z,10.30
2023-02-19T09:56:17.879Z,10.40
2023-02-19T09:58:48.785Z,10.48
2023-02-19T10:01:15.686Z,10.52
2023-02-19T10:03:44.740Z,10.67
2023-02-19T10:06:16.058Z,10.73
2023-02-19T10:08:44.479Z,10.72
2023-02-19T10:11:12.251Z,10.68
2023-02-19T10:13:44.282Z,10.66
2023-02-19T10:16:17.682Z,10.57
2023-02-19T10:18:45.420Z,10.62
2023-02-19T10:21:16.092Z,10.66
2023-02-19T10:23:43.280Z,10.71
2023-02-19T10:26:09.975Z,10.66
2023-02-19T10:28:36.674Z,10.63
2023-02-19T10:31:05.429Z,10.68
2023-02-19T10:33:32.131Z,10.65
2023-02-19T10:36:00.322Z,10.55
2023-02-19T10:38:28.312Z,10.59
2023-02-19T10:41:14.960Z,10.62
2023-02-19T10:43:43.895Z,10.57
2023-02-19T10:46:18.783Z,10.57
2023-02-19T10:48:49.802Z,10.66
2023-02-19T10:51:21.681Z,10.73
2023-02-19T10:53:49.863Z,10.67
2023-02-19T10:56:24.581Z,10.58
2023-02-19T10:58:51.230Z,10.52
2023-02-19T11:01:19.513Z,10.43
2023-02-19T11:03:48.742Z,10.45
2023-02-19T11:06:17.159Z,10.46
2023-02-19T11:08:43.604Z,10.53
2023-02-19T11:11:10.433Z,10.56
2023-02-19T11:13:38.165Z,10.56
2023-02-19T11:16:05.203Z,10.55
2023-02-19T11:18:32.725Z,10.65
2023-02-19T11:21:00.999Z,10.75
2023-02-19T11:23:57.090Z,10.83
2023-02-19T11:26:25.369Z,10.95
2023-02-19T11:28:56.215Z,10.98
2023-02-19T11:31:35.436Z,10.95
2023-02-19T11:34:03.940Z,10.90
2023-02-19T11:36:34.540Z,10.86
2023-02-19T11:39:10.120Z,10.87
2023-02-19T11:42:02.981Z,11.13
2023-02-19T11:44:39.909Z,11.45
2023-02-19T11:47:13.570Z,11.48
2023-02-19T11:49:40.193Z,11.56
2023-02-19T11:52:06.669Z,11.64
2023-02-19T11:54:52.732Z,11.73
2023-02-19T11:57:27.492Z,11.80
2023-02-19T11:59:59.512Z,11.87
2023-02-19T12:02:26.098Z,12.06
2023-02-19T12:05:05.593Z,11.86
2023-02-19T12:07:55.511Z,11.78
2023-02-19T12:10:31.896Z,11.79
2023-02-19T12:13:13.006Z,11.69
2023-02-19T12:18:34.692Z,11.26
2023-02-19T12:21:16.075Z,11.17
2023-02-19T12:23:42.642Z,11.03
2023-02-19T12:26:32.569Z,11.07
2023-02-19T12:29:25.322Z,10.88
2023-02-19T12:31:53.154Z,10.82
2023-02-19T12:34:24.053Z,10.63
2023-02-19T12:37:10.401Z,10.66
2023-02-19T12:40:14.491Z,10.53
2023-02-19T12:43:05.762Z,10.53
2023-02-19T12:45:34.276Z,10.46
2023-02-19T12:48:18.800Z,10.51
2023-02-19T12:50:48.844Z,10.62
2023-02-19T12:53:36.809Z,10.65
2023-02-19T12:56:12.632Z,10.68
2023-02-19T12:58:56.124Z,10.64
2023-02-19T13:01:49.165Z,10.61
2023-02-19T13:04:29.516Z,10.66
2023-02-19T13:07:10.036Z,10.56
2023-02-19T13:09:45.184Z,10.41
2023-02-19T13:12:18.060Z,10.43
2023-02-19T13:14:59.696Z,10.35
2023-02-19T13:17:49.385Z,10.34
2023-02-19T13:20:25.913Z,10.38
2023-02-19T13:26:02.580Z,10.11
2023-02-19T13:28:48.961Z,9.94
2023-02-19T13:31:56.254Z,9.85
2023-02-19T13:34:48.570Z,9.80
2023-02-19T13:37:23.231Z,9.84
2023-02-19T13:39:53.089Z,9.82
2023-02-19T13:42:51.718Z,9.93
2023-02-19T13:45:28.972Z,10.00
2023-02-19T13:47:57.073Z,10.10
2023-02-19T13:50:31.057Z,10.07
2023-02-19T13:53:03.311Z,9.99
2023-02-19T13:55:50.975Z,9.90
2023-02-19T13:58:55.870Z,10.01
2023-02-19T14:01:54.261Z,10.11
2023-02-19T14:04:27.475Z,10.19
2023-02-19T14:07:03.110Z,10.29
2023-02-19T14:09:43.802Z,10.21
2023-02-19T14:12:15.458Z,10.15
2023-02-19T14:14:56.287Z,10.13
2023-02-19T14:17:39.957Z,9.99
2023-02-19T14:20:09.421Z,9.80
2023-02-19T14:22:57.032Z,9.66
2023-02-19T14:25:45.256Z,9.64
2023-02-19T14:28:21.588Z,9.49
2023-02-19T14:30:54.338Z,9.47
2023-02-19T14:33:31.281Z,9.36
2023-02-19T14:36:15.863Z,9.31
2023-02-19T14:38:51.194Z,9.26
2023-02-19T14:41:19.024Z,9.26
2023-02-19T14:43:48.995Z,9.10
2023-02-19T14:46:24.505Z,9.05
2023-02-19T14:48:54.047Z,9.00
2023-02-19T14:51:31.872Z,8.96
2023-02-19T14:54:04.432Z,8.90
2023-02-19T14:56:34.446Z,8.82
2023-02-19T14:59:22.816Z,8.75
2023-02-19T15:02:14.790Z,8.57
2023-02-19T15:04:41.407Z,8.53
2023-02-19T15:07:13.865Z,8.56
2023-02-19T15:09:47.556Z,8.50
2023-02-19T15:12:25.626Z,8.44
2023-02-19T15:14:56.519Z,8.31
2023-02-19T15:17:31.682Z,8.33
2023-02-19T15:20:10.798Z,8.34
2023-02-19T15:22:41.445Z,8.24
2023-02-19T15:25:14.207Z,8.22
2023-02-19T15:27:40.925Z,8.18
2023-02-19T15:30:24.448Z,8.06
2023-02-19T15:33:01.678Z,7.98
2023-02-19T15:35:30.121Z,7.92
2023-02-19T15:37:57.137Z,7.88
2023-02-19T15:40:30.779Z,7.92
2023-02-19T15:43:02.444Z,7.91
2023-02-19T15:45:44.668Z,7.97
2023-02-19T15:48:23.144Z,7.99
2023-02-19T15:50:57.965Z,7.94
2023-02-19T15:53:30.033Z,7.85
2023-02-19T15:56:37.458Z,7.76
2023-02-19T15:59:11.664Z,7.77
2023-02-19T16:01:40.063Z,7.80
2023-02-19T16:04:13.219Z,7.80
2023-02-19T16:06:59.697Z,7.76
2023-02-19T16:09:38.409Z,7.70
2023-02-19T16:12:21.017Z,7.75
2023-02-19T16:14:50.698Z,7.86
2023-02-19T16:17:28.017Z,7.79
2023-02-19T16:19:58.468Z,7.79
2023-02-19T16:22:28.625Z,7.68
2023-02-19T16:25:07.796Z,7.58
2023-02-19T16:27:37.853Z,7.49
2023-02-19T16:30:21.238Z,7.49
2023-02-19T16:33:07.820Z,7.57
2023-02-19T16:35:42.325Z,7.50
2023-02-19T16:38:18.129Z,7.51
2023-02-19T16:40:54.380Z,7.52
2023-02-19T16:43:27.629Z,7.57
2023-02-19T16:45:56.788Z,7.70
2023-02-19T16:48:24.180Z,7.68
2023-02-19T16:50:54.287Z,7.70
2023-02-19T16:53:28.289Z,7.60
2023-02-19T16:55:55.184Z,7.53
2023-02-19T16:58:24.573Z,7.46
2023-02-19T17:00:53.791Z,7.38
2023-02-19T17:03:26.245Z,7.34
2023-02-19T17:05:56.369Z,7.22
2023-02-19T17:08:31.252Z,7.17
2023-02-19T17:10:59.125Z,7.22
2023-02-19T17:13:27.660Z,7.30
2023-02-19T17:15:54.600Z,7.29
2023-02-19T17:18:22.195Z,7.35
2023-02-19T17:20:56.575Z,7.38
2023-02-19T17:23:25.800Z,7.45
2023-02-19T17:25:54.634Z,7.46
2023-02-19T17:28:21.450Z,7.57
2023-02-19T17:30:48.131Z,7.70
2023-02-19T17:33:17.233Z,7.71
2023-02-19T17:35:51.207Z,7.75
2023-02-19T17:38:17.778Z,7.91
2023-02-19T17:40:47.345Z,7.81
2023-02-19T17:43:21.744Z,7.76
2023-02-19T17:45:48.803Z,7.60
2023-02-19T17:48:15.691Z,7.51
2023-02-19T17:50:42.406Z,7.60
2023-02-19T17:53:09.713Z,7.50
2023-02-19T17:55:36.351Z,7.44
2023-02-19T17:58:08.123Z,7.29
2023-02-19T18:00:36.339Z,7.27
2023-02-19T18:03:04.160Z,7.30
2023-02-19T18:05:31.427Z,7.30
2023-02-19T18:07:58.044Z,7.25
2023-02-19T18:10:25.316Z,7.31
2023-02-19T18:12:53.608Z,7.26
2023-02-19T18:15:21.934Z,7.24
2023-02-19T18:17:50.403Z,7.26
2023-02-19T18:20:17.925Z,7.24
2023-02-19T18:22:44.531Z,7.29
2023-02-19T18:25:19.699Z,7.45
2023-02-19T18:27:49.640Z,7.56
2023-02-19T18:30:19.124Z,7.63
2023-02-19T18:32:50.230Z,7.82
2023-02-19T18:35:20.073Z,7.83
2023-02-19T18:37:51.834Z,7.77
2023-02-19T18:40:20.433Z,7.65
2023-02-19T18:42:47.102Z,7.62
2023-02-19T18:45:13.777Z,7.62
2023-02-19T18:47:41.411Z,7.64
2023-02-19T18:50:09.771Z,7.59
2023-02-19T18:52:36.894Z,7.51
2023-02-19T18:55:03.469Z,7.65
2023-02-19T18:57:29.961Z,7.66
2023-02-19T18:59:58.586Z,7.60
2023-02-19T19:02:25.123Z,7.60
2023-02-19T19:04:52.377Z,7.57
2023-02-19T19:07:19.313Z,7.48
2023-02-19T19:09:45.890Z,7.55
2023-02-19T19:12:13.192Z,7.57
2023-02-19T19:14:39.831Z,7.72
2023-02-19T19:17:08.711Z,7.67
2023-02-19T19:19:35.278Z,7.71
2023-02-19T19:22:04.437Z,7.63
2023-02-19T19:24:31.078Z,7.70
2023-02-19T19:26:57.694Z,7.66
2023-02-19T19:29:27.362Z,7.70
2023-02-19T19:31:57.114Z,7.75
2023-02-19T19:34:24.125Z,7.68
2023-02-19T19:36:50.818Z,7.82
2023-02-19T19:39:18.732Z,7.81
2023-02-19T19:41:45.355Z,7.89
2023-02-19T19:44:14.515Z,7.82
2023-02-19T19:46:45.661Z,6.75
2023-02-19T19:49:12.832Z,4.90
2023-02-19T19:51:39.534Z,4.48
2023-02-19T19:54:06.789Z,4.32
2023-02-19T19:56:39.440Z,4.31
2023-02-19T19:59:14.218Z,4.23
2023-02-19T20:01:51.749Z,4.20
2023-02-19T20:04:21.001Z,4.12
2023-02-19T20:06:47.880Z,4.16
2023-02-19T20:09:15.240Z,4.12
2023-02-19T20:11:51.069Z,4.22
2023-02-19T20:14:23.446Z,4.18
2023-02-19T20:16:50.698Z,4.32
2023-02-19T20:19:19.123Z,4.40
2023-02-19T20:21:47.165Z,4.47
2023-02-19T20:24:16.182Z,4.49
2023-02-19T20:26:49.670Z,4.62
2023-02-19T20:29:16.445Z,4.64
2023-02-19T20:31:51.533Z,4.60
2023-02-19T20:34:18.292Z,4.57
2023-02-19T20:36:46.972Z,4.53
2023-02-19T20:39:15.186Z,4.53
2023-02-19T20:41:51.428Z,4.57
2023-02-19T20:44:21.919Z,4.68
2023-02-19T20:46:50.572Z,4.63
2023-02-19T20:49:23.202Z,4.61
2023-02-19T20:52:01.076Z,4.62
2023-02-19T20:54:32.293Z,4.59
2023-02-19T20:57:02.359Z,4.54
2023-02-19T20:59:34.918Z,4.54
2023-02-19T21:02:16.007Z,4.49
2023-02-19T21:04:45.302Z,4.55
2023-02-19T21:07:16.976Z,4.51
2023-02-19T21:09:44.712Z,4.53
2023-02-19T21:12:12.057Z,4.49
2023-02-19T21:14:40.154Z,4.56
2023-02-19T21:17:07.115Z,4.54
2023-02-19T21:19:36.101Z,4.51
2023-02-19T21:22:04.788Z,4.55
2023-02-19T21:24:34.460Z,4.60
2023-02-19T21:27:03.892Z,4.55
2023-02-19T21:29:33.822Z,4.46
2023-02-19T21:32:01.213Z,4.48
2023-02-19T21:34:32.627Z,4.47
2023-02-19T21:36:59.952Z,4.44
2023-02-19T21:39:29.331Z,4.52
2023-02-19T21:41:58.638Z,4.59
2023-02-19T21:44:25.342Z,4.55
2023-02-19T21:46:53.704Z,4.47
2023-02-19T21:49:20.309Z,4.49
2023-02-19T21:51:48.701Z,4.46
2023-02-19T21:54:21.197Z,4.48
2023-02-19T21:56:48.742Z,4.42
2023-02-19T21:59:15.703Z,4.39
2023-02-19T22:01:54.128Z,4.45
2023-02-19T22:04:24.697Z,4.45
2023-02-19T22:06:59.295Z,4.43
2023-02-19T22:09:28.531Z,4.41
2023-02-19T22:11:55.225Z,4.44
2023-02-19T22:14:21.884Z,4.42
2023-02-19T22:16:51.972Z,4.42
2023-02-19T22:19:19.746Z,4.41
2023-02-19T22:21:46.440Z,4.38
2023-02-19T22:24:18.369Z,4.39
2023-02-19T22:26:48.105Z,4.42
2023-02-19T22:29:16.248Z,4.40
2023-02-19T22:31:45.564Z,4.36
2023-02-19T22:34:12.448Z,4.36
2023-02-19T22:36:41.578Z,4.35
2023-02-19T22:39:17.857Z,4.30
2023-02-19T22:41:47.806Z,4.31
2023-02-19T22:44:16.736Z,4.35
2023-02-19T22:46:54.047Z,4.38
2023-02-19T22:49:22.775Z,4.34
2023-02-19T22:52:24.113Z,4.33
2023-02-19T22:54:53.205Z,4.32
2023-02-19T22:57:19.811Z,4.34
2023-02-19T22:59:46.459Z,4.31
2023-02-19T23:02:18.488Z,4.31
2023-02-19T23:04:45.106Z,4.32
2023-02-19T23:07:11.718Z,4.31
2023-02-19T23:09:41.109Z,4.31
2023-02-19T23:12:10.549Z,4.35
2023-02-19T23:14:40.295Z,4.40
2023-02-19T23:17:11.049Z,4.35
2023-02-19T23:19:40.311Z,4.39
2023-02-19T23:22:10.340Z,4.46
2023-02-19T23:24:43.276Z,4.41
2023-02-19T23:27:12.242Z,4.37
2023-02-19T23:29:41.361Z,4.51
2023-02-19T23:32:09.429Z,4.47
2023-02-19T23:34:41.077Z,4.38
2023-02-19T23:37:07.752Z,4.46
2023-02-19T23:39:37.220Z,4.43
2023-02-19T23:42:06.400Z,4.32
2023-02-19T23:44:39.473Z,4.39
2023-02-19T23:47:06.143Z,4.34
2023-02-19T23:49:35.831Z,4.26
2023-02-19T23:52:11.777Z,4.40
2023-02-19T23:54:40.798Z,4.42
2023-02-19T23:57:07.605Z,4.33
2023-02-19T23:59:37.147Z,4.27
